Welcome to our new website - Welkom op onze vernieuwde website - Bienvenue sur notre nouveau site web - Willkommen auf unserer neuen Website
Check our progress frequently. Prüfen Sie unsere Fortschritte regelmäßig. Consultez notre progression fréquemment. Komt u straks nog eens terug


Webcam Wortegem - Petegem  Webcam Wortegem - Petegem


Onweer radar Meer informatie blitzortung!


Regen radar Meer informatie rain snow radar


Bezoek ook deze websites:

Template documentation
and downloads

And another site



METAR rapporten vliegvelden


Warning: A non-numeric value encountered in /var/www/vhosts/manhaeghe.com/httpdocs/weather28/metar/metarDisplay.php on line 166

Warning: A non-numeric value encountered in /var/www/vhosts/manhaeghe.com/httpdocs/weather28/metar/metarDisplay.php on line 166

Warning: A non-numeric value encountered in /var/www/vhosts/manhaeghe.com/httpdocs/weather28/metar/metarDisplay.php on line 166

Warning: A non-numeric value encountered in /var/www/vhosts/manhaeghe.com/httpdocs/weather28/metar/metarDisplay.php on line 166

Warning: A non-numeric value encountered in /var/www/vhosts/manhaeghe.com/httpdocs/weather28/metar/metarDisplay.php on line 166

Warning: A non-numeric value encountered in /var/www/vhosts/manhaeghe.com/httpdocs/weather28/metar/metarDisplay.php on line 166
   
EHVK - Volkel Rnlafb, Netherlands
Afstand tot: ZW 18 km
Gewijzigd: 29-03-2020 07:55
Helder  
Helder  
   Wind: Noorden 16.7 km/h
Wind: Noorden 16.7 km/h
Temperatuur: 3°C
Voelt als: -1°C
Dauwpunt: 0°C
Vochtigheid: 81%
Barometer: 1027 hPa
Bewolking: Helder
Zicht: meer dan 10 km
Bewolking: Helder
EHVK 290555Z AUTO 36009KT 330V030 9999 NCD 03/M00 Q1027 BLU
EDLV - Niederrhein, Germany
Afstand tot: ZO 25 km
Gewijzigd: 25-03-2020 13:50
Verouderd
Helder  
Helder  
   Wind: ONO 11.1 km/h
Wind: ONO 11.1 km/h
Temperatuur: 11°C
Dauwpunt: -8°C
Vochtigheid: 26%
Barometer: 1026 hPa
Zicht: meer dan 10 km
Bewolking: Helder
EDLV 251250Z 06006KT 360V150 CAVOK 11/M08 Q1026
EHDL - Deelen Rnlafb, Netherlands
Afstand tot: N 35 km
Gewijzigd: 29-03-2020 07:55
Helder  
Helder  
   Wind: Noorden 24.1 km/h
Wind: Noorden 24.1 km/h
Temperatuur: 4°C
Voelt als: -1°C
Dauwpunt: -1°C
Vochtigheid: 70%
Barometer: 1027 hPa
Bewolking: Helder
Zicht: meer dan 10 km
Bewolking: Helder
EHDL 290555Z AUTO 36013KT 320V030 9999 NCD 04/M01 Q1027 BLU
EHEH - Eindhoven Rnlafb, Netherlands
Afstand tot: ZW 48 km
Gewijzigd: 29-03-2020 07:55
Helder  
Helder  
   Wind: Noorden 22.2 km/h
Wind: Noorden 22.2 km/h
Temperatuur: 4°C
Voelt als: -1°C
Dauwpunt: 0°C
Vochtigheid: 75%
Barometer: 1027 hPa
Bewolking: Helder
Zicht: meer dan 10 km
Bewolking: Helder
EHEH 290555Z AUTO 36012KT 330V040 9999 NCD 04/00 Q1027 BLU 36010KT CAVOK BECMG 03018G28KT
EHGR - Gilze-Rijen Rnla, Netherlands
Afstand tot: WZW 70 km
Gewijzigd: 29-03-2020 07:55
Helder  
Helder  
   Wind: Noorden 16.7 km/h
Wind: Noorden 16.7 km/h
Temperatuur: 4°C
Voelt als: 0°C
Dauwpunt: 0°C
Vochtigheid: 75%
Barometer: 1028 hPa
Bewolking: Helder
Zicht: meer dan 10 km
Bewolking: Helder
EHGR 290555Z AUTO 35009KT 280V030 9999 NCD 04/00 Q1028 BLU
EBBL - Kleine-Brogel(Ba, Belgium
Afstand tot: ZZW 71 km
Gewijzigd: 29-03-2020 07:55
Helder  
Helder  
   Wind: Noorden 9.3 km/h
Wind: Noorden 9.3 km/h
Temperatuur: 3°C
Voelt als: 1°C
Dauwpunt: 0°C
Vochtigheid: 81%
Barometer: 1027 hPa
Bewolking: Helder
Zicht: meer dan 10 km
Bewolking: Helder
EBBL 290555Z AUTO 35005KT 9999 NCD 03/00 Q1027 BLU

Script ontwikkeld door  Saratoga-weather.org Aangepast voor de template door  Weerstation Leuven

U vindt ons ook hier:

Het Weer Aktueel

UK Metoffice

WeatherCloud

Apparatuur in gebruik:

Weerprogramma
Meteobridge

Meteobridge